createdAt,value
2023-01-20T00:01:48.369Z,7.76
2023-01-20T00:04:20.277Z,7.88
2023-01-20T00:06:49.438Z,7.90
2023-01-20T00:09:20.077Z,7.83
2023-01-20T00:11:49.177Z,7.61
2023-01-20T00:14:18.208Z,7.56
2023-01-20T00:16:47.324Z,7.46
2023-01-20T00:19:16.797Z,7.52
2023-01-20T00:21:47.263Z,7.46
2023-01-20T00:24:16.535Z,7.42
2023-01-20T00:26:45.534Z,7.43
2023-01-20T00:29:14.608Z,7.38
2023-01-20T00:31:43.998Z,7.43
2023-01-20T00:34:13.230Z,7.52
2023-01-20T00:36:42.159Z,7.59
2023-01-20T00:39:12.757Z,7.55
2023-01-20T00:41:41.835Z,7.47
2023-01-20T00:44:10.887Z,7.47
2023-01-20T00:46:40.048Z,7.54
2023-01-20T00:49:09.261Z,7.39
2023-01-20T00:51:38.407Z,7.23
2023-01-20T00:54:07.545Z,7.34
2023-01-20T00:56:37.998Z,7.35
2023-01-20T00:59:07.071Z,7.29
2023-01-20T01:01:36.305Z,7.12
2023-01-20T01:04:05.723Z,7.23
2023-01-20T01:06:34.771Z,7.19
2023-01-20T01:09:03.849Z,7.33
2023-01-20T01:11:32.941Z,7.48
2023-01-20T01:14:03.454Z,7.66
2023-01-20T01:16:32.656Z,7.65
2023-01-20T01:19:01.625Z,7.49
2023-01-20T01:21:30.723Z,7.57
2023-01-20T01:23:59.817Z,7.63
2023-01-20T01:26:28.857Z,7.75
2023-01-20T01:28:57.801Z,7.69
2023-01-20T01:31:28.518Z,7.79
2023-01-20T01:33:57.547Z,7.77
2023-01-20T01:36:26.579Z,7.79
2023-01-20T01:38:58.769Z,7.86
2023-01-20T01:41:28.744Z,7.79
2023-01-20T01:44:03.412Z,7.86
2023-01-20T01:46:34.101Z,7.88
2023-01-20T01:49:05.818Z,7.90
2023-01-20T01:51:39.370Z,7.88
2023-01-20T01:54:13.190Z,7.93
2023-01-20T01:56:43.619Z,7.95
2023-01-20T01:59:14.546Z,8.02
2023-01-20T02:01:51.023Z,7.99
2023-01-20T02:04:22.450Z,7.88
2023-01-20T02:06:53.929Z,8.02
2023-01-20T02:09:23.669Z,7.89
2023-01-20T02:11:56.866Z,8.04
2023-01-20T02:14:27.619Z,8.03
2023-01-20T02:17:04.212Z,8.08
2023-01-20T02:20:00.290Z,8.20
2023-01-20T02:22:42.179Z,8.17
2023-01-20T02:25:37.525Z,8.28
2023-01-20T02:28:44.583Z,8.23
2023-01-20T02:34:45.924Z,8.25
2023-01-20T02:37:18.696Z,8.27
2023-01-20T02:39:57.774Z,8.13
2023-01-20T02:42:34.065Z,8.15
2023-01-20T02:45:10.562Z,8.16
2023-01-20T02:47:51.731Z,8.01
2023-01-20T02:50:27.365Z,7.98
2023-01-20T02:53:00.069Z,8.01
2023-01-20T02:55:35.596Z,8.11
2023-01-20T02:58:08.999Z,8.10
2023-01-20T03:00:43.944Z,8.06
2023-01-20T03:03:17.510Z,8.12
2023-01-20T03:05:54.041Z,8.15
2023-01-20T03:08:25.851Z,8.16
2023-01-20T03:10:59.603Z,8.24
2023-01-20T03:13:34.965Z,8.20
2023-01-20T03:16:08.015Z,8.13
2023-01-20T03:18:38.265Z,8.11
2023-01-20T03:21:10.727Z,8.13
2023-01-20T03:23:42.785Z,8.07
2023-01-20T03:26:14.946Z,8.11
2023-01-20T03:28:45.865Z,8.14
2023-01-20T03:31:19.320Z,8.15
2023-01-20T03:33:50.329Z,8.14
2023-01-20T03:36:23.732Z,8.06
2023-01-20T03:38:55.222Z,8.03
2023-01-20T03:41:35.072Z,8.03
2023-01-20T03:44:13.946Z,7.69
2023-01-20T03:46:47.911Z,7.73
2023-01-20T03:49:22.512Z,7.64
2023-01-20T03:52:03.008Z,7.60
2023-01-20T03:54:39.579Z,7.46
2023-01-20T03:57:13.022Z,7.54
2023-01-20T03:59:45.604Z,7.39
2023-01-20T04:02:14.836Z,7.56
2023-01-20T04:04:46.302Z,7.61
2023-01-20T04:07:22.048Z,7.60
2023-01-20T04:09:54.316Z,7.63
2023-01-20T04:12:23.506Z,7.65
2023-01-20T04:14:52.627Z,7.69
2023-01-20T04:17:22.242Z,7.65
2023-01-20T04:19:51.425Z,7.73
2023-01-20T04:22:29.101Z,7.76
2023-01-20T04:25:02.875Z,7.76
2023-01-20T04:27:32.903Z,7.75
2023-01-20T04:30:02.037Z,7.74
2023-01-20T04:32:32.494Z,7.82
2023-01-20T04:35:01.504Z,7.87
2023-01-20T04:37:33.761Z,7.96
2023-01-20T04:40:02.863Z,7.91
2023-01-20T04:42:32.168Z,7.92
2023-01-20T04:45:01.301Z,7.96
2023-01-20T04:47:32.979Z,8.00
2023-01-20T04:50:02.080Z,8.05
2023-01-20T04:52:31.863Z,7.98
2023-01-20T04:55:02.442Z,8.09
2023-01-20T04:57:32.654Z,8.01
2023-01-20T05:00:01.906Z,8.17
2023-01-20T05:02:32.982Z,8.24
2023-01-20T05:05:02.066Z,8.30
2023-01-20T05:07:31.934Z,8.32
2023-01-20T05:10:02.399Z,8.33
2023-01-20T05:12:32.194Z,8.26
2023-01-20T05:15:01.399Z,8.20
2023-01-20T05:17:32.625Z,8.25
2023-01-20T05:20:01.775Z,8.09
2023-01-20T05:22:33.477Z,7.99
2023-01-20T05:25:03.961Z,7.95
2023-01-20T05:27:33.163Z,8.02
2023-01-20T05:30:02.381Z,7.78
2023-01-20T05:32:32.829Z,7.84
2023-01-20T05:35:02.050Z,7.69
2023-01-20T05:37:31.943Z,7.59
2023-01-20T05:40:01.063Z,7.55
2023-01-20T05:42:34.344Z,7.63
2023-01-20T05:45:03.557Z,7.44
2023-01-20T05:47:33.575Z,7.58
2023-01-20T05:50:02.491Z,7.57
2023-01-20T05:52:32.875Z,7.62
2023-01-20T05:55:01.908Z,7.69
2023-01-20T05:57:33.547Z,7.64
2023-01-20T06:00:02.511Z,7.81
2023-01-20T06:02:34.191Z,7.77
2023-01-20T06:05:03.660Z,7.86
2023-01-20T06:07:33.338Z,7.92
2023-01-20T06:10:02.704Z,7.88
2023-01-20T06:12:34.185Z,7.83
2023-01-20T06:15:03.453Z,7.80
2023-01-20T06:17:33.009Z,7.77
2023-01-20T06:20:02.013Z,7.53
2023-01-20T06:22:32.165Z,7.60
2023-01-20T06:25:01.216Z,7.71
2023-01-20T06:27:33.553Z,7.76
2023-01-20T06:30:02.699Z,7.75
2023-01-20T06:32:32.586Z,7.83
2023-01-20T06:35:01.731Z,7.71
2023-01-20T06:37:32.199Z,7.92
2023-01-20T06:40:01.496Z,8.02
2023-01-20T06:42:34.750Z,8.03
2023-01-20T06:45:03.792Z,7.99
2023-01-20T06:47:32.936Z,7.85
2023-01-20T06:50:02.076Z,7.93
2023-01-20T06:52:32.822Z,7.79
2023-01-20T06:55:01.859Z,7.76
2023-01-20T06:57:31.937Z,7.86
2023-01-20T07:00:02.583Z,7.98
2023-01-20T07:02:33.708Z,8.05
2023-01-20T07:05:02.860Z,8.15
2023-01-20T07:07:32.667Z,8.14
2023-01-20T07:10:01.660Z,8.05
2023-01-20T07:12:32.455Z,7.94
2023-01-20T07:15:03.020Z,7.92
2023-01-20T07:17:32.528Z,7.80
2023-01-20T07:20:01.580Z,7.67
2023-01-20T07:22:32.093Z,7.58
2023-01-20T07:25:01.155Z,7.47
2023-01-20T07:27:30.307Z,7.48
2023-01-20T07:29:59.480Z,7.67
2023-01-20T07:32:32.811Z,7.55
2023-01-20T07:35:01.593Z,7.59
2023-01-20T07:37:31.779Z,7.68
2023-01-20T07:40:00.984Z,7.61
2023-01-20T07:42:31.991Z,7.61
2023-01-20T07:45:01.050Z,7.70
2023-01-20T07:47:33.813Z,7.65
2023-01-20T07:50:02.846Z,7.58
2023-01-20T07:52:32.073Z,7.81
2023-01-20T07:55:02.510Z,7.82
2023-01-20T07:57:35.104Z,7.76
2023-01-20T08:00:05.173Z,7.81
2023-01-20T08:02:40.326Z,7.80
2023-01-20T08:05:10.113Z,7.91
2023-01-20T08:07:39.244Z,7.73
2023-01-20T08:10:09.587Z,7.70
2023-01-20T08:12:38.769Z,7.95
2023-01-20T08:15:09.348Z,7.83
2023-01-20T08:17:39.933Z,7.67
2023-01-20T08:20:11.275Z,7.95
2023-01-20T08:22:40.886Z,7.84
2023-01-20T08:25:10.853Z,8.03
2023-01-20T08:27:40.002Z,7.88
2023-01-20T08:30:10.885Z,7.97
2023-01-20T08:32:41.549Z,7.85
2023-01-20T08:35:11.009Z,7.96
2023-01-20T08:37:40.146Z,7.84
2023-01-20T08:40:10.620Z,8.05
2023-01-20T08:42:42.753Z,8.07
2023-01-20T08:45:12.686Z,7.87
2023-01-20T08:47:46.269Z,7.97
2023-01-20T08:50:17.126Z,8.17
2023-01-20T08:52:46.221Z,8.15
2023-01-20T08:55:15.571Z,8.22
2023-01-20T08:57:45.906Z,8.39
2023-01-20T09:00:16.297Z,8.39
2023-01-20T09:02:47.007Z,8.55
2023-01-20T09:05:16.551Z,8.70
2023-01-20T09:07:46.172Z,8.64
2023-01-20T09:10:15.677Z,8.65
2023-01-20T09:12:45.273Z,8.62
2023-01-20T09:15:15.005Z,8.41
2023-01-20T09:17:45.740Z,8.54
2023-01-20T09:20:15.371Z,8.71
2023-01-20T09:22:44.405Z,8.80
2023-01-20T09:25:14.171Z,8.66
2023-01-20T09:27:43.579Z,8.80
2023-01-20T09:30:13.132Z,8.83
2023-01-20T09:32:42.220Z,8.76
2023-01-20T09:35:13.654Z,8.94
2023-01-20T09:38:00.216Z,8.93
2023-01-20T09:40:54.523Z,8.88
2023-01-20T09:43:57.115Z,8.90
2023-01-20T09:46:36.701Z,8.95
2023-01-20T09:49:36.686Z,8.94
2023-01-20T09:52:32.545Z,8.97
2023-01-20T09:55:09.529Z,8.88
2023-01-20T09:57:44.930Z,8.84
2023-01-20T10:00:20.855Z,8.77
2023-01-20T10:02:55.473Z,8.59
2023-01-20T10:05:33.135Z,8.61
2023-01-20T10:08:10.142Z,8.59
2023-01-20T10:10:44.390Z,8.58
2023-01-20T10:13:18.545Z,8.60
2023-01-20T10:15:51.615Z,8.63
2023-01-20T10:18:23.537Z,8.60
2023-01-20T10:20:58.925Z,8.45
2023-01-20T10:23:38.198Z,8.56
2023-01-20T10:26:11.306Z,8.66
2023-01-20T10:28:57.266Z,8.69
2023-01-20T10:31:30.554Z,8.57
2023-01-20T10:34:07.670Z,8.62
2023-01-20T10:36:37.604Z,8.57
2023-01-20T10:39:19.744Z,8.71
2023-01-20T10:41:54.117Z,8.75
2023-01-20T10:44:24.657Z,8.75
2023-01-20T10:47:10.854Z,8.72
2023-01-20T10:49:59.429Z,8.66
2023-01-20T10:52:51.114Z,8.51
2023-01-20T10:55:35.262Z,8.79
2023-01-20T10:58:16.388Z,8.85
2023-01-20T11:00:46.128Z,8.40
2023-01-20T11:03:19.163Z,8.17
2023-01-20T11:05:50.693Z,7.97
2023-01-20T11:08:23.100Z,7.93
2023-01-20T11:10:56.520Z,7.95
2023-01-20T11:13:25.643Z,7.91
2023-01-20T11:15:57.935Z,7.94
2023-01-20T11:18:30.111Z,7.91
2023-01-20T11:21:02.483Z,7.92
2023-01-20T11:23:40.761Z,7.92
2023-01-20T11:26:22.353Z,7.85
2023-01-20T11:28:55.276Z,7.82
2023-01-20T11:31:37.890Z,7.65
2023-01-20T11:34:22.496Z,7.59
2023-01-20T11:36:51.968Z,7.49
2023-01-20T11:39:29.317Z,7.44
2023-01-20T11:42:16.666Z,7.50
2023-01-20T11:44:46.539Z,7.41
2023-01-20T11:47:25.011Z,7.41
2023-01-20T11:50:29.677Z,7.40
2023-01-20T11:53:21.224Z,7.14
2023-01-20T11:55:56.635Z,6.79
2023-01-20T11:58:29.000Z,6.40
2023-01-20T12:01:03.847Z,6.15
2023-01-20T12:03:56.295Z,5.99
2023-01-20T12:06:29.089Z,5.82
2023-01-20T12:09:03.048Z,5.76
2023-01-20T12:11:35.849Z,5.54
2023-01-20T12:14:29.443Z,5.53
2023-01-20T12:17:13.050Z,5.51
2023-01-20T12:19:55.930Z,5.41
2023-01-20T12:22:30.143Z,5.42
2023-01-20T12:25:10.725Z,5.42
2023-01-20T12:27:48.421Z,5.31
2023-01-20T12:30:30.467Z,5.40
2023-01-20T12:33:00.136Z,5.44
2023-01-20T12:35:32.937Z,5.51
2023-01-20T12:38:08.518Z,5.54
2023-01-20T12:40:49.315Z,5.62
2023-01-20T12:43:43.696Z,5.45
2023-01-20T12:46:37.293Z,5.63
2023-01-20T12:49:20.622Z,5.64
2023-01-20T12:52:06.109Z,5.48
2023-01-20T12:54:53.147Z,5.42
2023-01-20T12:57:43.536Z,5.37
2023-01-20T13:00:25.564Z,5.37
2023-01-20T13:03:18.993Z,5.25
2023-01-20T13:06:22.028Z,5.25
2023-01-20T13:08:58.756Z,5.26
2023-01-20T13:11:48.234Z,5.33
2023-01-20T13:14:22.290Z,5.39
2023-01-20T13:17:00.431Z,5.32
2023-01-20T13:19:35.701Z,5.39
2023-01-20T13:22:12.163Z,5.27
2023-01-20T13:24:46.395Z,5.30
2023-01-20T13:27:16.655Z,5.02
2023-01-20T13:29:55.405Z,4.81
2023-01-20T13:32:35.169Z,4.81
2023-01-20T13:35:43.962Z,4.93
2023-01-20T13:38:22.189Z,4.87
2023-01-20T13:40:54.763Z,4.86
2023-01-20T13:43:58.914Z,4.96
2023-01-20T13:46:55.365Z,4.84
2023-01-20T13:49:47.827Z,4.77
2023-01-20T13:52:56.829Z,4.80
2023-01-20T13:55:30.536Z,4.70
2023-01-20T13:57:59.681Z,4.62
2023-01-20T14:00:28.800Z,4.67
2023-01-20T14:02:58.240Z,4.57
2023-01-20T14:05:33.554Z,4.57
2023-01-20T14:08:04.203Z,4.54
2023-01-20T14:10:33.472Z,4.61
2023-01-20T14:13:02.507Z,4.49
2023-01-20T14:15:37.587Z,4.33
2023-01-20T14:18:13.430Z,4.48
2023-01-20T14:20:42.927Z,4.32
2023-01-20T14:23:37.283Z,4.23
2023-01-20T14:26:11.589Z,4.21
2023-01-20T14:28:49.189Z,4.15
2023-01-20T14:31:25.771Z,4.27
2023-01-20T14:34:00.493Z,4.41
2023-01-20T14:36:33.526Z,4.31
2023-01-20T14:39:07.358Z,4.36
2023-01-20T14:41:47.122Z,4.34
2023-01-20T14:44:20.448Z,4.43
2023-01-20T14:46:51.727Z,4.54
2023-01-20T14:49:23.169Z,4.60
2023-01-20T14:51:53.336Z,4.58
2023-01-20T14:54:43.503Z,4.52
2023-01-20T14:57:25.264Z,4.46
2023-01-20T15:00:18.089Z,4.44
2023-01-20T15:03:01.414Z,4.42
2023-01-20T15:05:42.030Z,4.48
2023-01-20T15:08:26.691Z,4.26
2023-01-20T15:11:22.745Z,4.34
2023-01-20T15:14:09.611Z,4.25
2023-01-20T15:16:49.609Z,4.22
2023-01-20T15:19:37.326Z,4.27
2023-01-20T15:22:21.907Z,4.31
2023-01-20T15:24:51.652Z,4.33
2023-01-20T15:27:29.574Z,4.30
2023-01-20T15:30:19.609Z,4.24
2023-01-20T15:32:50.399Z,4.22
2023-01-20T15:35:23.118Z,4.24
2023-01-20T15:37:52.996Z,4.06
2023-01-20T15:40:24.090Z,4.16
2023-01-20T15:42:55.207Z,4.17
2023-01-20T15:45:25.784Z,4.13
2023-01-20T15:47:54.882Z,4.03
2023-01-20T15:50:26.940Z,4.12
2023-01-20T15:52:56.009Z,4.20
2023-01-20T15:55:25.111Z,4.12
2023-01-20T15:57:55.686Z,3.97
2023-01-20T16:00:25.802Z,4.00
2023-01-20T16:02:55.091Z,3.92
2023-01-20T16:05:25.495Z,3.83
2023-01-20T16:07:54.556Z,3.94
2023-01-20T16:10:23.920Z,3.82
2023-01-20T16:12:52.965Z,3.86
2023-01-20T16:15:23.586Z,3.86
2023-01-20T16:17:54.225Z,3.82
2023-01-20T16:20:25.181Z,3.82
2023-01-20T16:22:54.607Z,3.77
2023-01-20T16:25:23.763Z,3.72
2023-01-20T16:27:52.916Z,3.75
2023-01-20T16:30:24.839Z,3.54
2023-01-20T16:32:54.176Z,3.65
2023-01-20T16:35:25.734Z,3.65
2023-01-20T16:37:55.159Z,3.72
2023-01-20T16:40:24.921Z,3.56
2023-01-20T16:42:56.301Z,3.55
2023-01-20T16:45:29.363Z,3.52
2023-01-20T16:47:58.438Z,3.60
2023-01-20T16:50:28.727Z,3.54
2023-01-20T16:52:58.194Z,3.63
2023-01-20T16:55:27.292Z,3.61
2023-01-20T16:57:57.659Z,3.63
2023-01-20T17:00:28.559Z,3.62
2023-01-20T17:02:57.901Z,3.70
2023-01-20T17:05:29.615Z,3.68
2023-01-20T17:07:59.932Z,3.57
2023-01-20T17:10:33.748Z,3.52
2023-01-20T17:13:02.854Z,3.53
2023-01-20T17:15:33.608Z,3.42
2023-01-20T17:18:02.808Z,3.40
2023-01-20T17:20:32.730Z,3.31
2023-01-20T17:23:01.995Z,3.50
2023-01-20T17:25:31.229Z,3.43
2023-01-20T17:28:00.485Z,3.56
2023-01-20T17:30:29.649Z,3.57
2023-01-20T17:33:00.254Z,3.58
2023-01-20T17:35:29.428Z,3.46
2023-01-20T17:37:59.607Z,3.57
2023-01-20T17:40:28.795Z,3.47
2023-01-20T17:42:57.950Z,3.53
2023-01-20T17:45:28.608Z,3.52
2023-01-20T17:47:57.721Z,3.38
2023-01-20T17:50:28.805Z,3.55
2023-01-20T17:52:58.077Z,3.43
2023-01-20T17:55:27.407Z,3.33
2023-01-20T17:57:56.574Z,3.50
2023-01-20T18:00:25.804Z,3.42
2023-01-20T18:02:57.645Z,3.43
2023-01-20T18:05:28.841Z,3.50
2023-01-20T18:07:58.049Z,3.39
2023-01-20T18:10:27.023Z,3.36
2023-01-20T18:12:56.124Z,3.39
2023-01-20T18:15:25.365Z,3.42
2023-01-20T18:17:54.471Z,3.49
2023-01-20T18:20:23.693Z,3.52
2023-01-20T18:22:54.367Z,3.42
2023-01-20T18:25:23.653Z,3.45
2023-01-20T18:27:52.760Z,3.44
2023-01-20T18:30:22.010Z,3.58
2023-01-20T18:32:51.008Z,3.49
2023-01-20T18:35:20.110Z,3.44
2023-01-20T18:37:49.135Z,3.52
2023-01-20T18:40:20.123Z,3.49
2023-01-20T18:42:49.413Z,3.39
2023-01-20T18:45:18.583Z,3.42
2023-01-20T18:47:49.630Z,3.41
2023-01-20T18:50:19.965Z,3.52
2023-01-20T18:52:49.061Z,3.50
2023-01-20T18:55:19.630Z,3.49
2023-01-20T18:57:48.860Z,3.46
2023-01-20T19:00:18.659Z,3.43
2023-01-20T19:02:52.486Z,3.42
2023-01-20T19:05:21.619Z,3.49
2023-01-20T19:07:51.111Z,3.49
2023-01-20T19:10:21.638Z,3.52
2023-01-20T19:12:52.857Z,3.39
2023-01-20T19:15:21.979Z,3.50
2023-01-20T19:17:52.504Z,3.43
2023-01-20T19:20:21.762Z,3.51
2023-01-20T19:22:50.861Z,3.50
2023-01-20T19:25:21.349Z,3.53
2023-01-20T19:27:50.582Z,3.54
2023-01-20T19:30:19.947Z,3.62
2023-01-20T19:32:48.968Z,3.65
2023-01-20T19:35:18.297Z,3.65
2023-01-20T19:37:47.392Z,3.55
2023-01-20T19:40:17.537Z,3.43
2023-01-20T19:42:51.069Z,3.50
2023-01-20T19:45:20.400Z,3.52
2023-01-20T19:47:49.532Z,3.52
2023-01-20T19:50:19.275Z,3.55
2023-01-20T19:52:48.375Z,3.58
2023-01-20T19:55:17.625Z,3.57
2023-01-20T19:57:48.017Z,3.59
2023-01-20T20:00:17.850Z,3.57
2023-01-20T20:02:46.933Z,3.58
2023-01-20T20:05:17.025Z,3.56
2023-01-20T20:07:46.230Z,3.38
2023-01-20T20:10:15.821Z,3.41
2023-01-20T20:12:45.083Z,3.37
2023-01-20T20:15:15.735Z,3.28
2023-01-20T20:17:44.764Z,3.41
2023-01-20T20:20:14.397Z,3.40
2023-01-20T20:22:43.738Z,3.43
2023-01-20T20:25:12.889Z,3.49
2023-01-20T20:27:41.940Z,3.52
2023-01-20T20:30:12.347Z,3.56
2023-01-20T20:32:42.988Z,3.46
2023-01-20T20:35:12.033Z,3.43
2023-01-20T20:37:41.716Z,3.42
2023-01-20T20:40:12.339Z,3.41
2023-01-20T20:42:41.481Z,3.39
2023-01-20T20:45:11.996Z,3.34
2023-01-20T20:47:42.613Z,3.28
2023-01-20T20:50:13.948Z,3.29
2023-01-20T20:52:43.308Z,3.33
2023-01-20T20:55:12.437Z,3.28
2023-01-20T20:57:42.046Z,3.34
2023-01-20T21:00:12.490Z,3.25
2023-01-20T21:02:43.417Z,3.38
2023-01-20T21:05:12.653Z,3.39
2023-01-20T21:07:41.670Z,3.40
2023-01-20T21:10:14.079Z,3.42
2023-01-20T21:12:43.233Z,3.28
2023-01-20T21:15:13.846Z,3.33
2023-01-20T21:17:44.323Z,3.27
2023-01-20T21:20:14.233Z,3.27
2023-01-20T21:22:43.424Z,3.26
2023-01-20T21:25:12.609Z,3.31
2023-01-20T21:27:41.666Z,3.37
2023-01-20T21:30:12.088Z,3.36
2023-01-20T21:32:41.738Z,3.36
2023-01-20T21:35:12.415Z,3.27
2023-01-20T21:37:41.450Z,3.29
2023-01-20T21:40:11.962Z,3.20
2023-01-20T21:42:41.944Z,3.24
2023-01-20T21:45:10.821Z,3.01
2023-01-20T21:47:39.944Z,3.02
2023-01-20T21:50:30.100Z,2.97
2023-01-20T21:52:59.253Z,2.98
2023-01-20T21:55:28.290Z,2.92
2023-01-20T21:57:57.672Z,3.00
2023-01-20T22:00:26.873Z,2.92
2023-01-20T22:02:56.013Z,2.90
2023-01-20T22:05:26.430Z,2.81
2023-01-20T22:07:55.460Z,2.82
2023-01-20T22:10:24.543Z,2.79
2023-01-20T22:12:53.596Z,2.74
2023-01-20T22:15:22.652Z,2.77
2023-01-20T22:17:54.842Z,2.80
2023-01-20T22:20:23.895Z,2.77
2023-01-20T22:22:54.544Z,2.77
2023-01-20T22:25:23.601Z,2.78
2023-01-20T22:27:52.602Z,2.76
2023-01-20T22:30:21.815Z,2.77
2023-01-20T22:32:50.788Z,2.75
2023-01-20T22:35:20.138Z,2.78
2023-01-20T22:37:49.303Z,2.81
2023-01-20T22:40:20.017Z,2.72
2023-01-20T22:42:49.123Z,2.69
2023-01-20T22:45:18.422Z,2.74
2023-01-20T22:47:47.543Z,2.77
2023-01-20T22:50:17.100Z,2.72
2023-01-20T22:52:46.290Z,2.56
2023-01-20T22:55:15.755Z,2.72
2023-01-20T22:57:46.287Z,2.76
2023-01-20T23:00:16.087Z,2.62
2023-01-20T23:02:45.323Z,2.50
2023-01-20T23:05:14.362Z,2.75
2023-01-20T23:07:43.393Z,2.76
2023-01-20T23:10:34.911Z,2.73
2023-01-20T23:13:05.605Z,2.84
2023-01-20T23:15:34.679Z,2.92
2023-01-20T23:18:03.874Z,3.04
2023-01-20T23:20:32.907Z,3.08
2023-01-20T23:23:01.981Z,3.14
2023-01-20T23:25:31.227Z,2.76
2023-01-20T23:28:00.333Z,3.04
2023-01-20T23:30:30.812Z,3.17
2023-01-20T23:32:59.855Z,3.18
2023-01-20T23:35:28.879Z,3.23
2023-01-20T23:37:57.837Z,3.30
2023-01-20T23:40:27.585Z,3.26
2023-01-20T23:42:56.789Z,3.21
2023-01-20T23:45:25.940Z,3.25
2023-01-20T23:47:56.626Z,3.28
2023-01-20T23:50:25.788Z,3.21
2023-01-20T23:52:54.784Z,3.20
2023-01-20T23:55:23.854Z,3.24
2023-01-20T23:57:53.079Z,3.34
